createdAt,value
2023-03-31T00:00:19.324Z,5.03
2023-03-31T00:01:21.806Z,3.95
2023-03-31T00:02:24.274Z,3.20
2023-03-31T00:03:27.474Z,2.90
2023-03-31T00:04:32.234Z,2.63
2023-03-31T00:05:37.409Z,6.13
2023-03-31T00:06:42.192Z,4.50
2023-03-31T00:07:46.247Z,3.50
2023-03-31T00:08:51.926Z,4.13
2023-03-31T00:10:06.873Z,1.65
2023-03-31T00:11:12.900Z,4.78
2023-03-31T00:12:16.647Z,1.83
2023-03-31T00:13:19.115Z,3.38
2023-03-31T00:14:21.537Z,2.17
2023-03-31T00:15:24.027Z,5.03
2023-03-31T00:16:26.638Z,2.63
2023-03-31T00:17:28.884Z,6.63
2023-03-31T00:18:31.913Z,5.95
2023-03-31T00:19:34.273Z,3.17
2023-03-31T00:20:38.191Z,3.90
2023-03-31T00:21:42.743Z,10.07
2023-03-31T00:22:48.067Z,3.95
2023-03-31T00:23:55.755Z,3.67
2023-03-31T00:24:57.923Z,2.58
2023-03-31T00:26:00.325Z,3.58
2023-03-31T00:27:05.396Z,4.05
2023-03-31T00:28:07.915Z,3.63
2023-03-31T00:29:12.836Z,5.15
2023-03-31T00:30:16.065Z,2.83
2023-03-31T00:31:19.413Z,3.42
2023-03-31T00:32:22.688Z,2.85
2023-03-31T00:33:27.644Z,3.95
2023-03-31T00:34:30.090Z,4.68
2023-03-31T00:35:39.344Z,2.13
2023-03-31T00:36:47.608Z,3.03
2023-03-31T00:37:49.966Z,4.50
2023-03-31T00:38:53.194Z,2.60
2023-03-31T00:39:55.770Z,3.92
2023-03-31T00:40:59.662Z,4.55
2023-03-31T00:42:03.790Z,2.00
2023-03-31T00:43:25.476Z,4.03
2023-03-31T00:44:30.727Z,3.30
2023-03-31T00:45:33.010Z,3.42
2023-03-31T00:46:55.796Z,1.92
2023-03-31T00:48:16.372Z,3.50
2023-03-31T00:49:51.916Z,4.35
2023-03-31T00:50:56.556Z,2.40
2023-03-31T00:52:10.418Z,3.25
2023-03-31T00:53:17.898Z,5.88
2023-03-31T00:54:23.666Z,3.30
2023-03-31T00:55:33.829Z,4.07
2023-03-31T00:56:40.976Z,4.15
2023-03-31T00:57:46.742Z,4.82
2023-03-31T00:58:49.855Z,2.80
2023-03-31T00:59:59.218Z,5.88
2023-03-31T01:01:03.467Z,4.15
2023-03-31T01:02:05.905Z,5.97
2023-03-31T01:03:10.270Z,3.47
2023-03-31T01:04:16.424Z,3.10
2023-03-31T01:05:22.521Z,3.15
2023-03-31T01:06:25.762Z,2.85
2023-03-31T01:07:42.731Z,1.75
2023-03-31T01:08:47.601Z,2.97
2023-03-31T01:09:54.293Z,3.47
2023-03-31T01:11:02.234Z,3.72
2023-03-31T01:12:08.005Z,3.17
2023-03-31T01:13:12.060Z,3.15
2023-03-31T01:14:14.585Z,2.78
2023-03-31T01:15:20.305Z,3.08
2023-03-31T01:16:22.760Z,2.97
2023-03-31T01:17:28.390Z,2.45
2023-03-31T01:18:35.069Z,3.75
2023-03-31T01:19:57.253Z,2.53
2023-03-31T01:21:30.944Z,2.97
2023-03-31T01:23:05.387Z,3.00
2023-03-31T01:24:49.937Z,5.75
2023-03-31T01:26:11.060Z,2.25
2023-03-31T01:27:37.310Z,2.65
2023-03-31T01:28:48.426Z,4.75
2023-03-31T01:30:25.156Z,3.53
2023-03-31T01:31:33.480Z,4.97
2023-03-31T01:33:20.843Z,2.92
2023-03-31T01:35:04.909Z,4.32
2023-03-31T01:36:25.491Z,5.63
2023-03-31T01:37:55.115Z,2.97
2023-03-31T01:39:26.561Z,3.95
2023-03-31T01:40:45.848Z,3.63
2023-03-31T01:42:06.085Z,4.07
2023-03-31T01:43:24.662Z,2.30
2023-03-31T01:44:48.960Z,2.42
2023-03-31T01:45:58.529Z,2.47
2023-03-31T01:47:09.268Z,4.40
2023-03-31T01:48:23.614Z,4.65
2023-03-31T01:49:50.673Z,2.67
2023-03-31T01:51:13.753Z,2.92
2023-03-31T01:52:17.282Z,3.00
2023-03-31T01:53:41.401Z,5.88
2023-03-31T01:55:12.368Z,4.35
2023-03-31T01:56:38.339Z,4.15
2023-03-31T01:57:50.852Z,2.58
2023-03-31T01:59:27.219Z,2.88
2023-03-31T02:00:34.323Z,5.18
2023-03-31T02:01:56.400Z,4.15
2023-03-31T02:03:34.435Z,4.57
2023-03-31T02:04:43.065Z,3.45
2023-03-31T02:05:55.578Z,5.00
2023-03-31T02:07:03.746Z,2.42
2023-03-31T02:08:10.975Z,4.82
2023-03-31T02:09:22.644Z,4.30
2023-03-31T02:10:29.975Z,3.00
2023-03-31T02:11:34.793Z,3.53
2023-03-31T02:12:40.950Z,5.22
2023-03-31T02:13:46.899Z,5.03
2023-03-31T02:14:52.435Z,7.93
2023-03-31T02:15:59.746Z,4.35
2023-03-31T02:17:03.885Z,5.88
2023-03-31T02:18:13.115Z,3.70
2023-03-31T02:19:18.879Z,2.70
2023-03-31T02:20:23.334Z,6.00
2023-03-31T02:21:26.328Z,3.28
2023-03-31T02:22:34.327Z,3.08
2023-03-31T02:23:38.362Z,4.43
2023-03-31T02:24:42.269Z,4.93
2023-03-31T02:26:01.094Z,3.83
2023-03-31T02:27:27.905Z,2.42
2023-03-31T02:28:31.111Z,4.47
2023-03-31T02:29:34.300Z,3.65
2023-03-31T02:30:50.419Z,3.60
2023-03-31T02:32:01.774Z,4.18
2023-03-31T02:33:05.378Z,4.55
2023-03-31T02:34:07.618Z,3.08
2023-03-31T02:35:17.419Z,5.05
2023-03-31T02:36:21.541Z,7.43
2023-03-31T02:37:24.955Z,4.88
2023-03-31T02:38:27.274Z,3.45
2023-03-31T02:39:35.049Z,4.57
2023-03-31T02:40:37.557Z,3.42
2023-03-31T02:41:40.348Z,4.97
2023-03-31T02:42:43.339Z,3.22
2023-03-31T02:43:45.525Z,4.20
2023-03-31T02:44:48.067Z,6.05
2023-03-31T02:45:51.619Z,4.28
2023-03-31T02:46:54.668Z,7.05
2023-03-31T02:47:56.919Z,4.38
2023-03-31T02:49:02.745Z,5.07
2023-03-31T02:50:05.909Z,5.22
2023-03-31T02:51:09.215Z,5.22
2023-03-31T02:52:38.636Z,5.78
2023-03-31T02:53:52.779Z,6.03
2023-03-31T02:55:16.001Z,3.33
2023-03-31T02:56:36.801Z,8.98
2023-03-31T02:57:58.249Z,6.03
2023-03-31T02:59:24.490Z,4.45
2023-03-31T03:00:29.266Z,11.43
2023-03-31T03:01:43.791Z,2.72
2023-03-31T03:03:05.748Z,5.13
2023-03-31T03:04:09.695Z,5.60
2023-03-31T03:05:28.207Z,6.07
2023-03-31T03:07:10.068Z,7.63
2023-03-31T03:08:33.636Z,3.33
2023-03-31T03:09:44.593Z,7.38
2023-03-31T03:11:19.042Z,6.60
2023-03-31T03:12:39.487Z,4.07
2023-03-31T03:13:44.679Z,3.80
2023-03-31T03:15:06.036Z,6.03
2023-03-31T03:16:19.202Z,1.92
2023-03-31T03:17:31.923Z,3.67
2023-03-31T03:18:34.777Z,6.13
2023-03-31T03:19:36.914Z,4.47
2023-03-31T03:20:40.590Z,4.20
2023-03-31T03:21:44.164Z,4.13
2023-03-31T03:22:46.454Z,5.70
2023-03-31T03:23:49.006Z,7.05
2023-03-31T03:24:52.261Z,4.72
2023-03-31T03:25:54.860Z,2.10
2023-03-31T03:26:57.680Z,5.72
2023-03-31T03:27:59.884Z,3.47
2023-03-31T03:29:02.869Z,3.72
2023-03-31T03:30:08.568Z,6.90
2023-03-31T03:31:10.779Z,4.55
2023-03-31T03:32:13.199Z,5.40
2023-03-31T03:33:17.235Z,6.60
2023-03-31T03:34:20.503Z,5.60
2023-03-31T03:35:22.713Z,3.95
2023-03-31T03:36:25.083Z,6.05
2023-03-31T03:37:27.868Z,7.93
2023-03-31T03:38:30.358Z,5.55
2023-03-31T03:39:32.722Z,5.00
2023-03-31T03:40:34.927Z,8.80
2023-03-31T03:41:37.078Z,5.32
2023-03-31T03:42:39.253Z,7.30
2023-03-31T03:43:41.575Z,5.22
2023-03-31T03:44:43.746Z,4.75
2023-03-31T03:45:49.809Z,6.18
2023-03-31T03:46:52.014Z,5.38
2023-03-31T03:47:54.215Z,7.05
2023-03-31T03:48:56.602Z,6.70
2023-03-31T03:49:59.371Z,12.27
2023-03-31T03:51:01.905Z,5.25
2023-03-31T03:52:04.527Z,10.75
2023-03-31T03:53:08.171Z,5.10
2023-03-31T03:54:10.616Z,5.47
2023-03-31T03:55:13.932Z,8.73
2023-03-31T03:56:16.245Z,6.45
2023-03-31T03:57:18.456Z,5.90
2023-03-31T03:58:21.039Z,10.63
2023-03-31T03:59:23.570Z,4.47
2023-03-31T04:00:26.244Z,3.38
2023-03-31T04:01:28.459Z,5.93
2023-03-31T04:02:30.756Z,6.28
2023-03-31T04:03:33.359Z,5.78
2023-03-31T04:04:35.832Z,6.35
2023-03-31T04:05:38.031Z,5.38
2023-03-31T04:06:40.427Z,11.63
2023-03-31T04:07:42.707Z,6.63
2023-03-31T04:08:44.882Z,6.43
2023-03-31T04:09:47.421Z,8.63
2023-03-31T04:10:50.317Z,3.67
2023-03-31T04:11:52.479Z,5.60
2023-03-31T04:12:54.860Z,6.30
2023-03-31T04:13:57.070Z,7.60
2023-03-31T04:14:59.496Z,18.00
2023-03-31T04:16:01.849Z,3.63
2023-03-31T04:17:04.133Z,6.45
2023-03-31T04:18:06.556Z,5.93
2023-03-31T04:19:13.140Z,9.52
2023-03-31T04:20:15.354Z,6.72
2023-03-31T04:21:25.304Z,5.35
2023-03-31T04:22:35.385Z,5.68
2023-03-31T04:23:42.718Z,5.15
2023-03-31T04:24:46.610Z,5.97
2023-03-31T04:25:50.814Z,7.78
2023-03-31T04:26:53.184Z,6.80
2023-03-31T04:27:58.563Z,8.80
2023-03-31T04:29:00.968Z,8.52
2023-03-31T04:30:03.185Z,7.93
2023-03-31T04:31:09.379Z,8.20
2023-03-31T04:32:15.177Z,5.03
2023-03-31T04:33:17.475Z,6.00
2023-03-31T04:34:22.177Z,17.42
2023-03-31T04:35:26.765Z,8.50
2023-03-31T04:36:31.401Z,6.03
2023-03-31T04:37:35.112Z,12.23
2023-03-31T04:38:37.329Z,5.97
2023-03-31T04:39:39.641Z,5.90
2023-03-31T04:40:41.810Z,7.97
2023-03-31T04:41:44.708Z,7.22
2023-03-31T04:42:47.228Z,9.25
2023-03-31T04:43:49.409Z,6.32
2023-03-31T04:44:51.761Z,5.60
2023-03-31T04:45:53.941Z,5.68
2023-03-31T04:46:56.520Z,11.15
2023-03-31T04:47:59.101Z,9.45
2023-03-31T04:49:02.801Z,9.38
2023-03-31T04:50:05.877Z,7.00
2023-03-31T04:51:09.311Z,10.68
2023-03-31T04:52:11.537Z,5.60
2023-03-31T04:53:14.042Z,3.90
2023-03-31T04:54:16.726Z,8.15
2023-03-31T04:55:19.067Z,8.80
2023-03-31T04:56:22.783Z,6.65
2023-03-31T04:57:25.041Z,5.28
2023-03-31T04:58:28.087Z,4.75
2023-03-31T04:59:30.232Z,9.90
2023-03-31T05:00:32.432Z,5.80
2023-03-31T05:01:36.309Z,9.18
2023-03-31T05:02:38.837Z,6.40
2023-03-31T05:03:41.572Z,8.85
2023-03-31T05:04:43.774Z,6.18
2023-03-31T05:05:45.928Z,9.20
2023-03-31T05:06:48.282Z,6.90
2023-03-31T05:07:50.447Z,5.90
2023-03-31T05:08:52.980Z,8.40
2023-03-31T05:09:55.177Z,8.70
2023-03-31T05:10:57.886Z,5.30
2023-03-31T05:12:00.251Z,8.15
2023-03-31T05:13:02.464Z,10.48
2023-03-31T05:14:04.943Z,14.10
2023-03-31T05:15:08.388Z,6.38
2023-03-31T05:16:14.475Z,7.00
2023-03-31T05:17:17.949Z,14.40
2023-03-31T05:18:20.347Z,6.55
2023-03-31T05:19:22.865Z,10.40
2023-03-31T05:20:25.237Z,7.30
2023-03-31T05:21:28.657Z,10.02
2023-03-31T05:22:33.556Z,9.93
2023-03-31T05:23:36.097Z,11.07
2023-03-31T05:24:38.229Z,9.93
2023-03-31T05:25:42.589Z,24.70
2023-03-31T05:26:49.835Z,8.02
2023-03-31T05:27:52.189Z,11.43
2023-03-31T05:28:55.098Z,19.27
2023-03-31T05:29:57.288Z,18.30
2023-03-31T05:31:01.641Z,12.25
2023-03-31T05:32:04.028Z,9.95
2023-03-31T05:33:06.725Z,21.48
2023-03-31T05:34:09.129Z,8.15
2023-03-31T05:35:11.266Z,14.75
2023-03-31T05:36:16.154Z,9.40
2023-03-31T05:37:21.415Z,9.25
2023-03-31T05:38:23.624Z,9.98
2023-03-31T05:39:26.460Z,10.32
2023-03-31T05:40:28.709Z,22.90
2023-03-31T05:41:31.074Z,10.43
2023-03-31T05:42:33.332Z,11.38
2023-03-31T05:43:39.498Z,9.93
2023-03-31T05:44:41.851Z,13.82
2023-03-31T05:45:44.071Z,9.48
2023-03-31T05:46:47.001Z,10.55
2023-03-31T05:47:49.328Z,15.55
2023-03-31T05:48:51.558Z,17.15
2023-03-31T05:49:53.695Z,11.80
2023-03-31T05:50:59.701Z,9.77
2023-03-31T05:52:02.002Z,10.23
2023-03-31T05:53:04.512Z,9.80
2023-03-31T05:54:06.732Z,8.32
2023-03-31T05:55:09.799Z,11.98
2023-03-31T05:56:12.231Z,11.05
2023-03-31T05:57:14.397Z,10.68
2023-03-31T05:58:16.706Z,9.98
2023-03-31T05:59:20.387Z,9.52
2023-03-31T06:00:23.039Z,14.30
2023-03-31T06:01:25.243Z,12.57
2023-03-31T06:02:27.624Z,8.27
2023-03-31T06:03:29.906Z,7.25
2023-03-31T06:04:32.851Z,7.70
2023-03-31T06:05:35.452Z,9.45
2023-03-31T06:06:38.023Z,9.20
2023-03-31T06:07:40.517Z,10.48
2023-03-31T06:08:43.873Z,9.13
2023-03-31T06:09:46.718Z,7.85
2023-03-31T06:10:49.038Z,10.15
2023-03-31T06:11:51.530Z,8.80
2023-03-31T06:12:53.886Z,8.18
2023-03-31T06:13:56.036Z,9.55
2023-03-31T06:14:58.596Z,7.72
2023-03-31T06:16:01.414Z,8.13
2023-03-31T06:17:03.736Z,7.57
2023-03-31T06:18:07.591Z,8.32
2023-03-31T06:19:09.791Z,12.25
2023-03-31T06:20:26.499Z,33.53
2023-03-31T06:21:32.993Z,21.92
2023-03-31T06:22:35.605Z,21.35
2023-03-31T06:23:37.857Z,16.92
2023-03-31T06:24:40.254Z,10.68
2023-03-31T06:25:50.779Z,8.00
2023-03-31T06:26:54.110Z,8.80
2023-03-31T06:27:56.508Z,12.38
2023-03-31T06:28:58.946Z,10.18
2023-03-31T06:30:01.134Z,10.57
2023-03-31T06:31:07.348Z,11.68
2023-03-31T06:32:09.884Z,5.90
2023-03-31T06:33:13.234Z,16.48
2023-03-31T06:34:15.637Z,7.90
2023-03-31T06:35:18.066Z,8.32
2023-03-31T06:36:22.674Z,11.73
2023-03-31T06:37:24.900Z,8.23
2023-03-31T06:38:27.860Z,6.03
2023-03-31T06:39:30.141Z,9.93
2023-03-31T06:40:32.686Z,12.07
2023-03-31T06:41:35.114Z,7.57
2023-03-31T06:42:37.281Z,13.82
2023-03-31T06:43:39.791Z,26.10
2023-03-31T06:44:42.048Z,39.80
2023-03-31T06:45:44.412Z,19.15
2023-03-31T06:46:46.800Z,18.63
2023-03-31T06:47:49.090Z,6.28
2023-03-31T06:48:51.494Z,8.60
2023-03-31T06:49:53.642Z,6.95
2023-03-31T06:50:59.876Z,10.20
2023-03-31T06:52:04.158Z,6.65
2023-03-31T06:53:06.342Z,4.68
2023-03-31T06:54:08.478Z,11.30
2023-03-31T06:55:13.108Z,15.45
2023-03-31T06:56:15.462Z,12.35
2023-03-31T06:57:18.108Z,7.40
2023-03-31T06:58:20.696Z,8.38
2023-03-31T06:59:23.355Z,7.65
2023-03-31T07:00:27.107Z,7.38
2023-03-31T07:01:29.352Z,8.52
2023-03-31T07:02:31.960Z,9.07
2023-03-31T07:03:34.441Z,9.40
2023-03-31T07:04:36.932Z,11.05
2023-03-31T07:05:39.450Z,9.88
2023-03-31T07:06:41.744Z,9.02
2023-03-31T07:07:46.269Z,8.85
2023-03-31T07:08:48.746Z,5.25
2023-03-31T07:09:50.964Z,8.05
2023-03-31T07:10:58.772Z,7.90
2023-03-31T07:12:01.702Z,7.80
2023-03-31T07:13:05.800Z,5.75
2023-03-31T07:14:08.626Z,5.90
2023-03-31T07:15:11.006Z,9.18
2023-03-31T07:16:14.267Z,10.00
2023-03-31T07:17:16.742Z,13.57
2023-03-31T07:18:19.288Z,6.15
2023-03-31T07:19:21.651Z,6.82
2023-03-31T07:20:23.839Z,6.15
2023-03-31T07:21:26.461Z,4.57
2023-03-31T07:22:29.110Z,8.55
2023-03-31T07:23:31.328Z,8.60
2023-03-31T07:24:33.717Z,6.00
2023-03-31T07:25:36.165Z,18.63
2023-03-31T07:26:38.379Z,15.07
2023-03-31T07:27:41.275Z,9.35
2023-03-31T07:28:43.494Z,11.15
2023-03-31T07:29:45.874Z,5.53
2023-03-31T07:30:48.093Z,6.43
2023-03-31T07:31:50.771Z,9.65
2023-03-31T07:32:54.771Z,5.32
2023-03-31T07:33:57.069Z,10.20
2023-03-31T07:35:00.632Z,9.77
2023-03-31T07:36:12.590Z,18.42
2023-03-31T07:37:15.757Z,21.27
2023-03-31T07:38:18.328Z,9.85
2023-03-31T07:39:20.504Z,5.85
2023-03-31T07:40:29.319Z,9.50
2023-03-31T07:41:31.706Z,9.30
2023-03-31T07:42:35.124Z,12.00
2023-03-31T07:43:37.629Z,9.85
2023-03-31T07:44:39.797Z,8.93
2023-03-31T07:45:42.030Z,9.68
2023-03-31T07:46:44.545Z,7.03
2023-03-31T07:47:47.073Z,11.00
2023-03-31T07:48:50.129Z,7.63
2023-03-31T07:49:52.372Z,6.07
2023-03-31T07:50:55.055Z,6.05
2023-03-31T07:52:05.526Z,6.80
2023-03-31T07:53:08.007Z,6.95
2023-03-31T07:54:10.337Z,7.43
2023-03-31T07:55:13.089Z,7.13
2023-03-31T07:56:17.042Z,9.50
2023-03-31T07:58:21.948Z,6.05
2023-03-31T07:59:24.155Z,6.18
2023-03-31T08:00:27.041Z,9.32
2023-03-31T08:01:29.937Z,9.35
2023-03-31T08:02:32.402Z,14.30
2023-03-31T08:03:34.960Z,4.65
2023-03-31T08:04:37.232Z,6.30
2023-03-31T08:05:39.409Z,6.68
2023-03-31T08:06:41.762Z,8.18
2023-03-31T08:07:47.141Z,7.18
2023-03-31T08:08:50.605Z,4.70
2023-03-31T08:09:52.816Z,5.18
2023-03-31T08:10:54.980Z,6.28
2023-03-31T08:11:57.323Z,6.07
2023-03-31T08:12:59.664Z,9.05
2023-03-31T08:14:01.881Z,11.10
2023-03-31T08:15:05.251Z,6.05
2023-03-31T08:16:08.036Z,12.23
2023-03-31T08:17:11.077Z,6.15
2023-03-31T08:18:13.502Z,5.93
2023-03-31T08:19:15.916Z,5.20
2023-03-31T08:20:18.140Z,4.85
2023-03-31T08:21:23.763Z,8.82
2023-03-31T08:22:27.390Z,6.60
2023-03-31T08:23:29.902Z,4.80
2023-03-31T08:24:32.135Z,3.30
2023-03-31T08:25:34.768Z,3.97
2023-03-31T08:26:37.105Z,6.05
2023-03-31T08:27:40.821Z,6.10
2023-03-31T08:28:43.207Z,6.30
2023-03-31T08:29:45.488Z,6.13
2023-03-31T08:30:48.098Z,7.05
2023-03-31T08:31:51.933Z,10.32
2023-03-31T08:32:54.091Z,10.07
2023-03-31T08:33:57.519Z,8.90
2023-03-31T08:34:59.962Z,10.00
2023-03-31T08:36:04.784Z,13.07
2023-03-31T08:37:07.343Z,8.55
2023-03-31T08:38:09.685Z,10.52
2023-03-31T08:39:12.069Z,13.00
2023-03-31T08:40:20.409Z,8.32
2023-03-31T08:41:55.354Z,9.35
2023-03-31T08:43:12.335Z,5.30
2023-03-31T08:44:21.903Z,12.25
2023-03-31T08:45:30.646Z,11.20
2023-03-31T08:46:35.731Z,13.65
2023-03-31T08:47:39.180Z,5.57
2023-03-31T08:48:46.735Z,7.75
2023-03-31T08:49:57.280Z,6.93
2023-03-31T08:51:11.798Z,6.00
2023-03-31T08:52:18.776Z,14.75
2023-03-31T08:53:28.577Z,10.75
2023-03-31T08:54:40.494Z,15.98
2023-03-31T08:55:57.128Z,15.57
2023-03-31T08:57:00.061Z,23.10
2023-03-31T08:58:13.418Z,12.45
2023-03-31T08:59:23.176Z,12.95
2023-03-31T09:00:26.778Z,6.20
2023-03-31T09:01:47.789Z,12.90
2023-03-31T09:03:10.015Z,16.98
2023-03-31T09:04:30.197Z,17.52
2023-03-31T09:05:59.471Z,7.60
2023-03-31T09:07:24.021Z,3.78
2023-03-31T09:08:33.869Z,5.45
2023-03-31T09:09:38.940Z,12.23
2023-03-31T09:11:04.995Z,6.55
2023-03-31T09:12:16.900Z,11.98
2023-03-31T09:13:29.592Z,8.88
2023-03-31T09:14:40.687Z,5.30
2023-03-31T09:15:59.315Z,9.05
2023-03-31T09:17:25.628Z,5.20
2023-03-31T09:18:32.026Z,9.02
2023-03-31T09:20:13.471Z,14.63
2023-03-31T09:21:32.873Z,8.13
2023-03-31T09:22:40.041Z,9.75
2023-03-31T09:24:02.134Z,8.27
2023-03-31T09:25:26.975Z,6.45
2023-03-31T09:26:41.430Z,4.80
2023-03-31T09:27:45.155Z,10.57
2023-03-31T09:28:47.394Z,8.48
2023-03-31T09:30:18.174Z,6.78
2023-03-31T09:31:21.525Z,8.27
2023-03-31T09:32:30.435Z,5.63
2023-03-31T09:33:32.855Z,8.45
2023-03-31T09:34:35.120Z,5.78
2023-03-31T09:35:37.993Z,4.07
2023-03-31T09:36:40.769Z,10.50
2023-03-31T09:37:43.181Z,7.28
2023-03-31T09:38:47.133Z,8.50
2023-03-31T09:39:49.676Z,12.35
2023-03-31T09:40:52.191Z,7.88
2023-03-31T09:41:55.816Z,11.25
2023-03-31T09:43:05.643Z,9.40
2023-03-31T09:44:24.495Z,4.77
2023-03-31T09:45:27.285Z,6.82
2023-03-31T09:46:35.602Z,6.97
2023-03-31T09:47:43.281Z,7.60
2023-03-31T09:49:16.292Z,5.13
2023-03-31T09:50:18.764Z,7.20
2023-03-31T09:51:29.208Z,4.80
2023-03-31T09:52:34.952Z,8.73
2023-03-31T09:53:43.453Z,6.68
2023-03-31T09:54:51.249Z,8.20
2023-03-31T09:55:58.815Z,6.82
2023-03-31T09:57:01.146Z,4.80
2023-03-31T09:58:07.673Z,6.95
2023-03-31T09:59:34.991Z,7.32
2023-03-31T10:00:41.714Z,4.80
2023-03-31T10:01:50.556Z,6.03
2023-03-31T10:02:57.730Z,8.55
2023-03-31T10:04:02.743Z,7.40
2023-03-31T10:05:08.331Z,5.70
2023-03-31T10:06:14.299Z,5.55
2023-03-31T10:07:22.927Z,6.50
2023-03-31T10:08:38.463Z,4.35
2023-03-31T10:09:41.762Z,5.80
2023-03-31T10:10:51.152Z,7.03
2023-03-31T10:12:08.276Z,6.50
2023-03-31T10:13:13.587Z,6.13
2023-03-31T10:14:16.646Z,7.53
2023-03-31T10:15:22.675Z,7.90
2023-03-31T10:16:30.344Z,5.90
2023-03-31T10:17:47.158Z,5.20
2023-03-31T10:18:54.476Z,6.88
2023-03-31T10:20:17.753Z,4.53
2023-03-31T10:21:25.897Z,12.48
2023-03-31T10:22:32.777Z,8.35
2023-03-31T10:23:36.152Z,7.15
2023-03-31T10:24:42.131Z,5.53
2023-03-31T10:25:47.777Z,5.20
2023-03-31T10:26:53.676Z,6.97
2023-03-31T10:27:57.112Z,6.82
2023-03-31T10:28:59.574Z,4.90
2023-03-31T10:30:08.680Z,6.68
2023-03-31T10:31:13.081Z,5.60
2023-03-31T10:32:33.508Z,3.63
2023-03-31T10:33:44.976Z,5.93
2023-03-31T10:34:47.420Z,7.97
2023-03-31T10:35:56.034Z,5.03
2023-03-31T10:36:58.570Z,7.55
2023-03-31T10:38:17.443Z,8.70
2023-03-31T10:39:20.481Z,6.78
2023-03-31T10:40:26.832Z,6.38
2023-03-31T10:41:31.016Z,7.07
2023-03-31T10:42:33.517Z,7.38
2023-03-31T10:43:41.026Z,5.78
2023-03-31T10:44:43.387Z,8.82
2023-03-31T10:45:50.991Z,7.97
2023-03-31T10:46:53.257Z,8.90
2023-03-31T10:47:59.435Z,12.45
2023-03-31T10:49:15.422Z,8.80
2023-03-31T10:50:17.925Z,11.52
2023-03-31T10:51:27.883Z,7.75
2023-03-31T10:52:30.259Z,9.18
2023-03-31T10:53:46.695Z,8.00
2023-03-31T10:54:53.235Z,8.43
2023-03-31T10:56:13.943Z,5.05
2023-03-31T10:57:18.588Z,9.68
2023-03-31T10:58:26.598Z,7.97
2023-03-31T10:59:51.795Z,7.28
2023-03-31T11:01:12.689Z,11.30
2023-03-31T11:03:45.187Z,7.03
2023-03-31T11:04:52.720Z,11.18
2023-03-31T11:06:16.428Z,14.23
2023-03-31T11:07:30.668Z,13.10
2023-03-31T11:08:42.128Z,9.15
2023-03-31T11:10:03.944Z,14.23
2023-03-31T11:11:28.229Z,9.88
2023-03-31T11:12:39.232Z,9.55
2023-03-31T11:13:51.326Z,11.57
2023-03-31T11:15:15.571Z,10.75
2023-03-31T11:16:46.087Z,10.10
2023-03-31T11:18:06.849Z,11.52
2023-03-31T11:20:34.231Z,7.93
2023-03-31T11:21:54.672Z,10.05
2023-03-31T11:23:16.058Z,9.40
2023-03-31T11:24:18.194Z,11.00
2023-03-31T11:25:40.114Z,13.80
2023-03-31T11:27:00.484Z,12.00
2023-03-31T11:28:40.504Z,10.80
2023-03-31T11:30:03.411Z,8.48
2023-03-31T11:31:05.935Z,6.57
2023-03-31T11:32:32.470Z,15.00
2023-03-31T11:33:40.864Z,6.68
2023-03-31T11:34:45.969Z,9.30
2023-03-31T11:35:48.126Z,13.02
2023-03-31T11:37:05.159Z,5.35
2023-03-31T11:38:38.657Z,7.45
2023-03-31T11:40:07.787Z,8.07
2023-03-31T11:41:41.846Z,10.20
2023-03-31T11:43:02.336Z,5.97
2023-03-31T11:44:09.504Z,12.95
2023-03-31T11:45:18.583Z,10.82
2023-03-31T11:46:48.691Z,11.93
2023-03-31T11:47:55.722Z,9.75
2023-03-31T11:49:04.268Z,9.23
2023-03-31T11:50:16.853Z,7.72
2023-03-31T11:51:25.741Z,12.23
2023-03-31T11:52:34.521Z,10.02
2023-03-31T11:53:40.010Z,11.75
2023-03-31T11:54:59.433Z,12.80
2023-03-31T11:56:05.293Z,12.43
2023-03-31T11:57:27.043Z,11.93
2023-03-31T11:58:57.929Z,12.75
2023-03-31T12:00:20.503Z,13.80
2023-03-31T12:01:40.696Z,10.15
2023-03-31T12:03:07.943Z,12.00
2023-03-31T12:04:25.805Z,9.98
2023-03-31T12:05:31.859Z,8.38
2023-03-31T12:06:40.028Z,13.07
2023-03-31T12:07:54.046Z,25.27
2023-03-31T12:09:12.173Z,10.30
2023-03-31T12:10:20.347Z,7.05
2023-03-31T12:11:30.793Z,7.72
2023-03-31T12:12:42.887Z,6.50
2023-03-31T12:13:53.389Z,5.47
2023-03-31T12:15:06.822Z,7.57
2023-03-31T12:16:18.977Z,6.35
2023-03-31T12:17:27.783Z,8.73
2023-03-31T12:18:36.858Z,7.68
2023-03-31T12:19:52.169Z,4.93
2023-03-31T12:20:58.257Z,8.45
2023-03-31T12:22:22.518Z,13.82
2023-03-31T12:23:28.821Z,4.90
2023-03-31T12:24:32.337Z,6.80
2023-03-31T12:25:48.075Z,6.97
2023-03-31T12:26:53.025Z,5.63
2023-03-31T12:27:56.572Z,7.28
2023-03-31T12:29:05.754Z,7.10
2023-03-31T12:30:13.471Z,6.32
2023-03-31T12:31:22.355Z,5.95
2023-03-31T12:32:30.460Z,10.15
2023-03-31T12:33:38.213Z,4.38
2023-03-31T12:34:47.896Z,4.95
2023-03-31T12:36:19.808Z,7.75
2023-03-31T12:37:44.898Z,6.97
2023-03-31T12:39:12.458Z,5.28
2023-03-31T12:40:42.772Z,5.57
2023-03-31T12:42:04.829Z,6.85
2023-03-31T12:43:18.363Z,9.00
2023-03-31T12:44:51.331Z,9.55
2023-03-31T12:46:14.772Z,7.22
2023-03-31T12:47:26.086Z,7.53
2023-03-31T12:48:33.926Z,4.07
2023-03-31T12:49:36.855Z,5.53
2023-03-31T12:50:39.293Z,3.90
2023-03-31T12:51:56.523Z,4.00
2023-03-31T12:53:28.563Z,6.03
2023-03-31T12:54:33.758Z,7.47
2023-03-31T12:55:39.486Z,7.93
2023-03-31T12:57:00.099Z,2.92
2023-03-31T12:58:34.257Z,5.35
2023-03-31T12:59:42.110Z,5.30
2023-03-31T13:01:07.808Z,8.10
2023-03-31T13:02:10.490Z,6.68
2023-03-31T13:03:34.568Z,4.45
2023-03-31T13:04:38.287Z,4.80
2023-03-31T13:05:44.292Z,3.65
2023-03-31T13:06:52.565Z,4.95
2023-03-31T13:07:54.750Z,5.35
2023-03-31T13:09:06.153Z,4.15
2023-03-31T13:10:14.321Z,3.72
2023-03-31T13:11:18.600Z,6.50
2023-03-31T13:12:24.090Z,6.43
2023-03-31T13:13:26.859Z,5.72
2023-03-31T13:14:38.585Z,4.05
2023-03-31T13:15:49.979Z,3.75
2023-03-31T13:17:11.096Z,6.75
2023-03-31T13:18:20.024Z,6.28
2023-03-31T13:19:33.942Z,6.00
2023-03-31T13:20:38.780Z,4.38
2023-03-31T13:21:58.034Z,4.05
2023-03-31T13:23:22.222Z,4.82
2023-03-31T13:24:26.954Z,3.63
2023-03-31T13:25:34.902Z,3.95
2023-03-31T13:26:38.352Z,6.13
2023-03-31T13:27:49.795Z,6.40
2023-03-31T13:29:43.466Z,5.57
2023-03-31T13:31:07.163Z,4.93
2023-03-31T13:32:20.794Z,2.55
2023-03-31T13:33:37.276Z,3.05
2023-03-31T13:35:14.013Z,5.47
2023-03-31T13:36:24.978Z,7.68
2023-03-31T13:37:36.379Z,3.95
2023-03-31T13:39:15.889Z,4.30
2023-03-31T13:40:33.414Z,12.88
2023-03-31T13:41:46.440Z,3.90
2023-03-31T13:43:27.413Z,3.92
2023-03-31T13:44:51.302Z,2.72
2023-03-31T13:46:06.316Z,8.52
2023-03-31T13:47:31.089Z,3.33
2023-03-31T13:48:51.778Z,3.78
2023-03-31T13:50:22.123Z,5.57
2023-03-31T13:51:52.055Z,4.70
2023-03-31T13:53:25.730Z,4.32
2023-03-31T13:54:49.355Z,3.50
2023-03-31T13:56:12.527Z,3.55
2023-03-31T13:57:42.813Z,3.53
2023-03-31T13:59:16.158Z,2.88
2023-03-31T14:00:44.482Z,4.28
2023-03-31T14:01:58.998Z,1.65
2023-03-31T14:03:13.784Z,4.25
2023-03-31T14:04:38.728Z,3.95
2023-03-31T14:05:50.826Z,2.50
2023-03-31T14:07:09.928Z,3.05
2023-03-31T14:08:20.148Z,3.78
2023-03-31T14:09:47.137Z,2.38
2023-03-31T14:10:49.334Z,3.00
2023-03-31T14:11:51.573Z,4.13
2023-03-31T14:14:43.382Z,2.63
2023-03-31T14:15:57.683Z,3.63
2023-03-31T14:17:02.574Z,2.85
2023-03-31T14:18:07.009Z,1.60
2023-03-31T14:19:43.440Z,2.17
2023-03-31T14:21:22.748Z,2.20
2023-03-31T14:22:32.144Z,1.00
2023-03-31T14:23:48.993Z,2.20
2023-03-31T14:25:02.537Z,3.22
2023-03-31T14:26:10.390Z,3.25
2023-03-31T14:27:21.603Z,6.10
2023-03-31T14:28:58.188Z,4.05
2023-03-31T14:30:06.899Z,1.38
2023-03-31T14:31:24.003Z,1.40
2023-03-31T14:32:32.272Z,1.08
2023-03-31T14:33:42.249Z,2.78
2023-03-31T14:35:03.850Z,3.70
2023-03-31T14:36:21.380Z,5.45
2023-03-31T14:37:24.583Z,1.83
2023-03-31T14:38:29.625Z,3.42
2023-03-31T14:39:43.990Z,2.15
2023-03-31T14:40:56.491Z,1.48
2023-03-31T14:42:03.100Z,1.92
2023-03-31T14:43:05.697Z,5.57
2023-03-31T14:44:15.430Z,2.22
2023-03-31T14:45:25.457Z,2.05
2023-03-31T14:46:32.869Z,3.63
2023-03-31T14:47:35.357Z,1.67
2023-03-31T14:48:45.485Z,3.00
2023-03-31T14:49:48.424Z,4.80
2023-03-31T14:50:58.108Z,1.63
2023-03-31T14:52:06.608Z,2.70
2023-03-31T14:53:15.904Z,3.50
2023-03-31T14:54:20.304Z,1.75
2023-03-31T14:55:31.822Z,1.27
2023-03-31T14:56:42.337Z,2.38
2023-03-31T14:57:47.316Z,2.78
2023-03-31T14:58:52.655Z,3.05
2023-03-31T14:59:55.819Z,2.08
2023-03-31T15:00:59.174Z,2.00
2023-03-31T15:02:03.625Z,2.47
2023-03-31T15:03:09.277Z,3.50
2023-03-31T15:04:15.855Z,1.85
2023-03-31T15:05:38.709Z,1.73
2023-03-31T15:06:42.336Z,1.58
2023-03-31T15:07:44.534Z,2.65
2023-03-31T15:08:47.201Z,2.10
2023-03-31T15:09:51.355Z,2.60
2023-03-31T15:11:12.029Z,3.83
2023-03-31T15:12:17.525Z,2.63
2023-03-31T15:13:56.775Z,7.15
2023-03-31T15:15:07.493Z,4.20
2023-03-31T15:16:45.101Z,2.10